sensor_id;sensor_type;location;lat;lon;timestamp;pressure;altitude;pressure_sealevel;temperature
62932;BMP280;49037;41.898;25.004;2023-09-30T00:01:24;96748.59;;;18.46
62932;BMP280;49037;41.898;25.004;2023-09-30T00:03:51;96739.06;;;18.36
62932;BMP280;49037;41.898;25.004;2023-09-30T00:06:16;96748.88;;;18.41
62932;BMP280;49037;41.898;25.004;2023-09-30T00:08:41;96741.69;;;18.34
62932;BMP280;49037;41.898;25.004;2023-09-30T00:11:08;96736.84;;;18.32
62932;BMP280;49037;41.898;25.004;2023-09-30T00:13:34;96748.22;;;18.31
62932;BMP280;49037;41.898;25.004;2023-09-30T00:16:00;96741.69;;;18.25
62932;BMP280;49037;41.898;25.004;2023-09-30T00:18:28;96750.63;;;18.27
62932;BMP280;49037;41.898;25.004;2023-09-30T00:20:55;96745.72;;;18.14
62932;BMP280;49037;41.898;25.004;2023-09-30T00:23:20;96740.34;;;18.05
62932;BMP280;49037;41.898;25.004;2023-09-30T00:25:47;96731.69;;;17.97
62932;BMP280;49037;41.898;25.004;2023-09-30T00:28:13;96736.38;;;17.96
62932;BMP280;49037;41.898;25.004;2023-09-30T00:30:39;96733.53;;;17.94
62932;BMP280;49037;41.898;25.004;2023-09-30T00:33:05;96739.81;;;17.87
62932;BMP280;49037;41.898;25.004;2023-09-30T00:35:35;96738.00;;;17.71
62932;BMP280;49037;41.898;25.004;2023-09-30T00:38:00;96735.88;;;17.70
62932;BMP280;49037;41.898;25.004;2023-09-30T00:40:26;96729.59;;;17.67
62932;BMP280;49037;41.898;25.004;2023-09-30T00:42:54;96729.31;;;17.54
62932;BMP280;49037;41.898;25.004;2023-09-30T00:45:21;96737.72;;;17.58
62932;BMP280;49037;41.898;25.004;2023-09-30T00:47:46;96739.28;;;17.51
62932;BMP280;49037;41.898;25.004;2023-09-30T00:50:12;96738.16;;;17.45
62932;BMP280;49037;41.898;25.004;2023-09-30T00:52:39;96724.94;;;17.30
62932;BMP280;49037;41.898;25.004;2023-09-30T00:55:06;96731.47;;;17.27
62932;BMP280;49037;41.898;25.004;2023-09-30T00:57:34;96728.94;;;17.20
62932;BMP280;49037;41.898;25.004;2023-09-30T01:00:00;96731.03;;;17.21
62932;BMP280;49037;41.898;25.004;2023-09-30T01:02:26;96737.44;;;17.16
62932;BMP280;49037;41.898;25.004;2023-09-30T01:04:52;96734.31;;;17.10
62932;BMP280;49037;41.898;25.004;2023-09-30T01:07:18;96727.63;;;17.02
62932;BMP280;49037;41.898;25.004;2023-09-30T01:09:47;96739.00;;;17.01
62932;BMP280;49037;41.898;25.004;2023-09-30T01:12:12;96736.84;;;16.99
62932;BMP280;49037;41.898;25.004;2023-09-30T01:14:37;96736.13;;;16.99
62932;BMP280;49037;41.898;25.004;2023-09-30T01:17:04;96739.38;;;16.97
62932;BMP280;49037;41.898;25.004;2023-09-30T01:19:29;96732.88;;;16.91
62932;BMP280;49037;41.898;25.004;2023-09-30T01:21:58;96723.47;;;16.82
62932;BMP280;49037;41.898;25.004;2023-09-30T01:24:31;96718.63;;;16.81
62932;BMP280;49037;41.898;25.004;2023-09-30T01:26:57;96735.84;;;16.85
62932;BMP280;49037;41.898;25.004;2023-09-30T01:29:23;96741.19;;;16.76
62932;BMP280;49037;41.898;25.004;2023-09-30T01:31:51;96742.03;;;16.69
62932;BMP280;49037;41.898;25.004;2023-09-30T01:34:17;96740.03;;;16.60
62932;BMP280;49037;41.898;25.004;2023-09-30T01:36:43;96732.63;;;16.51
62932;BMP280;49037;41.898;25.004;2023-09-30T01:39:10;96720.13;;;16.46
62932;BMP280;49037;41.898;25.004;2023-09-30T01:41:37;96743.41;;;16.51
62932;BMP280;49037;41.898;25.004;2023-09-30T01:44:22;96721.53;;;16.47
62932;BMP280;49037;41.898;25.004;2023-09-30T01:46:48;96723.31;;;16.35
62932;BMP280;49037;41.898;25.004;2023-09-30T01:49:13;96739.97;;;16.41
62932;BMP280;49037;41.898;25.004;2023-09-30T01:51:39;96729.28;;;16.34
62932;BMP280;49037;41.898;25.004;2023-09-30T01:54:04;96718.03;;;16.28
62932;BMP280;49037;41.898;25.004;2023-09-30T01:56:30;96724.59;;;16.34
62932;BMP280;49037;41.898;25.004;2023-09-30T01:58:56;96715.69;;;16.32
62932;BMP280;49037;41.898;25.004;2023-09-30T02:01:21;96716.19;;;16.30
62932;BMP280;49037;41.898;25.004;2023-09-30T02:03:47;96733.97;;;16.33
62932;BMP280;49037;41.898;25.004;2023-09-30T02:06:12;96724.00;;;16.26
62932;BMP280;49037;41.898;25.004;2023-09-30T02:08:38;96715.75;;;16.24
62932;BMP280;49037;41.898;25.004;2023-09-30T02:11:03;96720.13;;;16.20
62932;BMP280;49037;41.898;25.004;2023-09-30T02:13:35;96713.84;;;16.08
62932;BMP280;49037;41.898;25.004;2023-09-30T02:16:01;96722.91;;;16.13
62932;BMP280;49037;41.898;25.004;2023-09-30T02:18:27;96720.66;;;16.09
62932;BMP280;49037;41.898;25.004;2023-09-30T02:20:52;96722.53;;;16.16
62932;BMP280;49037;41.898;25.004;2023-09-30T02:23:18;96713.84;;;16.08
62932;BMP280;49037;41.898;25.004;2023-09-30T02:25:44;96724.22;;;16.12
62932;BMP280;49037;41.898;25.004;2023-09-30T02:28:10;96708.94;;;15.97
62932;BMP280;49037;41.898;25.004;2023-09-30T02:30:37;96713.78;;;15.99
62932;BMP280;49037;41.898;25.004;2023-09-30T02:33:03;96713.84;;;16.08
62932;BMP280;49037;41.898;25.004;2023-09-30T02:35:29;96716.06;;;16.02
62932;BMP280;49037;41.898;25.004;2023-09-30T02:37:55;96702.69;;;15.95
62932;BMP280;49037;41.898;25.004;2023-09-30T02:40:20;96714.34;;;15.97
62932;BMP280;49037;41.898;25.004;2023-09-30T02:42:46;96715.34;;;16.02
62932;BMP280;49037;41.898;25.004;2023-09-30T02:45:15;96706.91;;;15.88
62932;BMP280;49037;41.898;25.004;2023-09-30T02:47:42;96717.88;;;15.90
62932;BMP280;49037;41.898;25.004;2023-09-30T02:50:08;96711.91;;;15.92
62932;BMP280;49037;41.898;25.004;2023-09-30T02:52:36;96714.03;;;15.93
62932;BMP280;49037;41.898;25.004;2023-09-30T02:55:02;96710.63;;;15.93
62932;BMP280;49037;41.898;25.004;2023-09-30T02:57:28;96702.41;;;15.91
62932;BMP280;49037;41.898;25.004;2023-09-30T02:59:53;96703.97;;;15.94
62932;BMP280;49037;41.898;25.004;2023-09-30T03:02:20;96697.56;;;15.89
62932;BMP280;49037;41.898;25.004;2023-09-30T03:04:47;96698.84;;;15.88
62932;BMP280;49037;41.898;25.004;2023-09-30T03:07:14;96705.94;;;15.93
62932;BMP280;49037;41.898;25.004;2023-09-30T03:09:39;96704.06;;;15.86
62932;BMP280;49037;41.898;25.004;2023-09-30T03:12:05;96702.34;;;15.82
62932;BMP280;49037;41.898;25.004;2023-09-30T03:14:31;96714.75;;;15.94
62932;BMP280;49037;41.898;25.004;2023-09-30T03:16:59;96713.63;;;15.97
62932;BMP280;49037;41.898;25.004;2023-09-30T03:19:27;96701.72;;;15.90
62932;BMP280;49037;41.898;25.004;2023-09-30T03:21:53;96698.25;;;15.81
62932;BMP280;49037;41.898;25.004;2023-09-30T03:24:18;96711.31;;;15.84
62932;BMP280;49037;41.898;25.004;2023-09-30T03:26:44;96706.56;;;15.75
62932;BMP280;49037;41.898;25.004;2023-09-30T03:29:09;96712.50;;;15.74
62932;BMP280;49037;41.898;25.004;2023-09-30T03:31:35;96715.25;;;15.83
62932;BMP280;49037;41.898;25.004;2023-09-30T03:34:02;96716.44;;;15.89
62932;BMP280;49037;41.898;25.004;2023-09-30T03:36:48;96725.38;;;15.92
62932;BMP280;49037;41.898;25.004;2023-09-30T03:39:14;96720.56;;;15.74
62932;BMP280;49037;41.898;25.004;2023-09-30T03:41:40;96722.97;;;15.70
62932;BMP280;49037;41.898;25.004;2023-09-30T03:44:06;96723.25;;;15.74
62932;BMP280;49037;41.898;25.004;2023-09-30T03:46:31;96719.69;;;15.71
62932;BMP280;49037;41.898;25.004;2023-09-30T03:48:57;96723.13;;;15.72
62932;BMP280;49037;41.898;25.004;2023-09-30T03:51:22;96722.38;;;15.71
62932;BMP280;49037;41.898;25.004;2023-09-30T03:53:51;96725.00;;;15.79
62932;BMP280;49037;41.898;25.004;2023-09-30T03:56:17;96708.84;;;15.79
62932;BMP280;49037;41.898;25.004;2023-09-30T03:58:43;96716.50;;;15.82
62932;BMP280;49037;41.898;25.004;2023-09-30T04:01:10;96713.66;;;15.80
62932;BMP280;49037;41.898;25.004;2023-09-30T04:03:39;96714.72;;;15.68
62932;BMP280;49037;41.898;25.004;2023-09-30T04:06:05;96716.41;;;15.63
62932;BMP280;49037;41.898;25.004;2023-09-30T04:08:32;96717.97;;;15.66
62932;BMP280;49037;41.898;25.004;2023-09-30T04:11:02;96721.72;;;15.71
62932;BMP280;49037;41.898;25.004;2023-09-30T04:13:28;96727.34;;;15.65
62932;BMP280;49037;41.898;25.004;2023-09-30T04:15:54;96728.41;;;15.62
62932;BMP280;49037;41.898;25.004;2023-09-30T04:18:20;96739.19;;;15.62
62932;BMP280;49037;41.898;25.004;2023-09-30T04:20:47;96733.50;;;15.58
62932;BMP280;49037;41.898;25.004;2023-09-30T04:23:16;96730.28;;;15.43
62932;BMP280;49037;41.898;25.004;2023-09-30T04:25:41;96727.81;;;15.38
62932;BMP280;49037;41.898;25.004;2023-09-30T04:28:08;96721.31;;;15.24
62932;BMP280;49037;41.898;25.004;2023-09-30T04:30:33;96719.56;;;15.19
62932;BMP280;49037;41.898;25.004;2023-09-30T04:32:59;96723.41;;;15.16
62932;BMP280;49037;41.898;25.004;2023-09-30T04:35:26;96724.34;;;15.28
62932;BMP280;49037;41.898;25.004;2023-09-30T04:37:51;96725.84;;;15.38
62932;BMP280;49037;41.898;25.004;2023-09-30T04:40:17;96736.03;;;15.39
62932;BMP280;49037;41.898;25.004;2023-09-30T04:42:47;96726.22;;;15.35
62932;BMP280;49037;41.898;25.004;2023-09-30T04:45:13;96728.78;;;15.33
62932;BMP280;49037;41.898;25.004;2023-09-30T04:47:42;96738.91;;;15.41
62932;BMP280;49037;41.898;25.004;2023-09-30T04:50:09;96725.03;;;15.45
62932;BMP280;49037;41.898;25.004;2023-09-30T04:52:37;96739.53;;;15.49
62932;BMP280;49037;41.898;25.004;2023-09-30T04:55:04;96740.00;;;15.55
62932;BMP280;49037;41.898;25.004;2023-09-30T04:57:29;96733.50;;;15.58
62932;BMP280;49037;41.898;25.004;2023-09-30T04:59:55;96745.63;;;15.67
62932;BMP280;49037;41.898;25.004;2023-09-30T05:02:21;96753.44;;;15.72
62932;BMP280;49037;41.898;25.004;2023-09-30T05:04:47;96745.63;;;15.67
62932;BMP280;49037;41.898;25.004;2023-09-30T05:07:12;96754.63;;;15.79
62932;BMP280;49037;41.898;25.004;2023-09-30T05:09:38;96743.91;;;15.71
62932;BMP280;49037;41.898;25.004;2023-09-30T05:12:04;96744.09;;;15.73
62932;BMP280;49037;41.898;25.004;2023-09-30T05:14:31;96752.34;;;15.75
62932;BMP280;49037;41.898;25.004;2023-09-30T05:16:56;96753.75;;;15.76
62932;BMP280;49037;41.898;25.004;2023-09-30T05:19:22;96758.91;;;15.82
62932;BMP280;49037;41.898;25.004;2023-09-30T05:21:48;96751.53;;;15.82
62932;BMP280;49037;41.898;25.004;2023-09-30T05:24:16;96747.31;;;15.88
62932;BMP280;49037;41.898;25.004;2023-09-30T05:26:47;96762.38;;;15.91
62932;BMP280;49037;41.898;25.004;2023-09-30T05:29:16;96767.22;;;15.93
62932;BMP280;49037;41.898;25.004;2023-09-30T05:31:42;96759.91;;;16.03
62932;BMP280;49037;41.898;25.004;2023-09-30T05:34:07;96765.25;;;16.20
62932;BMP280;49037;41.898;25.004;2023-09-30T05:36:33;96765.19;;;16.36
62932;BMP280;49037;41.898;25.004;2023-09-30T05:39:02;96754.69;;;16.40
62932;BMP280;49037;41.898;25.004;2023-09-30T05:41:28;96762.16;;;16.59
62932;BMP280;49037;41.898;25.004;2023-09-30T05:43:54;96768.03;;;16.74
62932;BMP280;49037;41.898;25.004;2023-09-30T05:46:20;96768.50;;;16.89
62932;BMP280;49037;41.898;25.004;2023-09-30T05:48:46;96787.44;;;17.08
62932;BMP280;49037;41.898;25.004;2023-09-30T05:51:12;96768.53;;;17.17
62932;BMP280;49037;41.898;25.004;2023-09-30T05:53:42;96769.28;;;17.18
62932;BMP280;49037;41.898;25.004;2023-09-30T05:56:08;96765.44;;;17.30
62932;BMP280;49037;41.898;25.004;2023-09-30T05:58:36;96766.44;;;17.35
62932;BMP280;49037;41.898;25.004;2023-09-30T06:01:07;96772.72;;;17.56
62932;BMP280;49037;41.898;25.004;2023-09-30T06:03:32;96772.16;;;17.67
62932;BMP280;49037;41.898;25.004;2023-09-30T06:05:59;96779.66;;;17.78
62932;BMP280;49037;41.898;25.004;2023-09-30T06:08:25;96779.50;;;17.85
62932;BMP280;49037;41.898;25.004;2023-09-30T06:10:50;96778.63;;;18.01
62932;BMP280;49037;41.898;25.004;2023-09-30T06:13:18;96781.47;;;18.13
62932;BMP280;49037;41.898;25.004;2023-09-30T06:15:46;96785.25;;;18.19
62932;BMP280;49037;41.898;25.004;2023-09-30T06:18:11;96771.75;;;18.19
62932;BMP280;49037;41.898;25.004;2023-09-30T06:20:38;96778.97;;;18.35
62932;BMP280;49037;41.898;25.004;2023-09-30T06:23:07;96781.19;;;18.48
62932;BMP280;49037;41.898;25.004;2023-09-30T06:25:32;96789.66;;;18.64
62932;BMP280;49037;41.898;25.004;2023-09-30T06:27:58;96784.97;;;18.85
62932;BMP280;49037;41.898;25.004;2023-09-30T06:30:24;96789.22;;;18.97
62932;BMP280;49037;41.898;25.004;2023-09-30T06:32:59;96790.81;;;19.11
62932;BMP280;49037;41.898;25.004;2023-09-30T06:35:26;96799.38;;;19.29
62932;BMP280;49037;41.898;25.004;2023-09-30T06:37:52;96793.44;;;19.42
62932;BMP280;49037;41.898;25.004;2023-09-30T06:40:20;96791.22;;;19.49
62932;BMP280;49037;41.898;25.004;2023-09-30T06:42:49;96802.28;;;19.74
62932;BMP280;49037;41.898;25.004;2023-09-30T06:45:14;96796.31;;;19.87
62932;BMP280;49037;41.898;25.004;2023-09-30T06:47:40;96803.44;;;20.03
62932;BMP280;49037;41.898;25.004;2023-09-30T06:52:08;96789.69;;;20.33
62932;BMP280;49037;41.898;25.004;2023-09-30T06:54:33;96792.88;;;20.41
62932;BMP280;49037;41.898;25.004;2023-09-30T06:58:25;96788.28;;;20.66
62932;BMP280;49037;41.898;25.004;2023-09-30T07:02:09;96794.72;;;20.96
62932;BMP280;49037;41.898;25.004;2023-09-30T07:04:35;96799.06;;;21.12
62932;BMP280;49037;41.898;25.004;2023-09-30T07:08:16;96805.63;;;21.56
62932;BMP280;49037;41.898;25.004;2023-09-30T07:11:01;96793.41;;;21.69
62932;BMP280;49037;41.898;25.004;2023-09-30T07:13:47;96805.88;;;21.98
62932;BMP280;49037;41.898;25.004;2023-09-30T07:16:13;96799.97;;;22.02
62932;BMP280;49037;41.898;25.004;2023-09-30T07:18:38;96803.31;;;22.27
62932;BMP280;49037;41.898;25.004;2023-09-30T07:23:15;96819.19;;;22.70
62932;BMP280;49037;41.898;25.004;2023-09-30T07:25:40;96811.22;;;22.87
62932;BMP280;49037;41.898;25.004;2023-09-30T07:28:06;96812.81;;;23.06
62932;BMP280;49037;41.898;25.004;2023-09-30T07:30:51;96812.06;;;23.18
62932;BMP280;49037;41.898;25.004;2023-09-30T07:33:17;96810.06;;;23.19
62932;BMP280;49037;41.898;25.004;2023-09-30T07:35:42;96805.78;;;23.29
62932;BMP280;49037;41.898;25.004;2023-09-30T07:38:08;96820.88;;;23.46
62932;BMP280;49037;41.898;25.004;2023-09-30T07:40:33;96818.47;;;23.38
62932;BMP280;49037;41.898;25.004;2023-09-30T07:42:59;96827.81;;;23.49
62932;BMP280;49037;41.898;25.004;2023-09-30T07:45:24;96806.16;;;23.37
62932;BMP280;49037;41.898;25.004;2023-09-30T07:47:50;96808.66;;;23.47
62932;BMP280;49037;41.898;25.004;2023-09-30T07:50:16;96813.66;;;23.65
62932;BMP280;49037;41.898;25.004;2023-09-30T07:52:42;96817.78;;;23.82
62932;BMP280;49037;41.898;25.004;2023-09-30T07:55:09;96823.09;;;23.93
62932;BMP280;49037;41.898;25.004;2023-09-30T07:57:34;96816.13;;;24.05
62932;BMP280;49037;41.898;25.004;2023-09-30T08:00:00;96822.81;;;24.18
62932;BMP280;49037;41.898;25.004;2023-09-30T08:02:28;96817.28;;;24.16
62932;BMP280;49037;41.898;25.004;2023-09-30T08:04:58;96827.50;;;24.00
62932;BMP280;49037;41.898;25.004;2023-09-30T08:07:25;96813.16;;;23.99
62932;BMP280;49037;41.898;25.004;2023-09-30T08:09:50;96807.50;;;24.11
62932;BMP280;49037;41.898;25.004;2023-09-30T08:12:16;96823.09;;;24.39
62932;BMP280;49037;41.898;25.004;2023-09-30T08:14:41;96818.69;;;24.47
62932;BMP280;49037;41.898;25.004;2023-09-30T08:17:09;96809.75;;;24.62
62932;BMP280;49037;41.898;25.004;2023-09-30T08:19:35;96820.09;;;24.81
62932;BMP280;49037;41.898;25.004;2023-09-30T08:22:01;96810.88;;;24.72
62932;BMP280;49037;41.898;25.004;2023-09-30T08:24:28;96809.72;;;24.77
62932;BMP280;49037;41.898;25.004;2023-09-30T08:26:54;96817.22;;;24.77
62932;BMP280;49037;41.898;25.004;2023-09-30T08:29:21;96807.56;;;24.28
62932;BMP280;49037;41.898;25.004;2023-09-30T08:34:15;96809.78;;;24.47
62932;BMP280;49037;41.898;25.004;2023-09-30T08:36:41;96815.25;;;24.47
62932;BMP280;49037;41.898;25.004;2023-09-30T08:39:07;96806.16;;;24.75
62932;BMP280;49037;41.898;25.004;2023-09-30T08:41:33;96815.69;;;24.89
62932;BMP280;49037;41.898;25.004;2023-09-30T08:44:00;96801.81;;;25.18
62932;BMP280;49037;41.898;25.004;2023-09-30T08:46:34;96813.69;;;25.41
62932;BMP280;49037;41.898;25.004;2023-09-30T08:49:04;96810.38;;;25.62
62932;BMP280;49037;41.898;25.004;2023-09-30T08:51:31;96807.94;;;25.70
62932;BMP280;49037;41.898;25.004;2023-09-30T08:53:58;96814.03;;;25.86
62932;BMP280;49037;41.898;25.004;2023-09-30T08:56:28;96808.59;;;25.51
62932;BMP280;49037;41.898;25.004;2023-09-30T08:58:58;96804.91;;;25.28
62932;BMP280;49037;41.898;25.004;2023-09-30T09:01:27;96810.47;;;25.12
62932;BMP280;49037;41.898;25.004;2023-09-30T09:03:56;96814.88;;;25.19
62932;BMP280;49037;41.898;25.004;2023-09-30T09:06:25;96800.50;;;25.36
62932;BMP280;49037;41.898;25.004;2023-09-30T09:08:51;96798.81;;;25.46
62932;BMP280;49037;41.898;25.004;2023-09-30T09:11:18;96806.63;;;25.54
62932;BMP280;49037;41.898;25.004;2023-09-30T09:13:51;96817.38;;;25.84
62932;BMP280;49037;41.898;25.004;2023-09-30T09:16:20;96808.97;;;25.98
62932;BMP280;49037;41.898;25.004;2023-09-30T09:18:47;96805.50;;;25.78
62932;BMP280;49037;41.898;25.004;2023-09-30T09:21:13;96805.09;;;25.85
62932;BMP280;49037;41.898;25.004;2023-09-30T09:23:43;96802.19;;;25.99
62932;BMP280;49037;41.898;25.004;2023-09-30T09:26:23;96791.47;;;25.33
62932;BMP280;49037;41.898;25.004;2023-09-30T09:28:49;96798.47;;;25.73
62932;BMP280;49037;41.898;25.004;2023-09-30T09:31:26;96786.50;;;25.28
62932;BMP280;49037;41.898;25.004;2023-09-30T09:34:01;96781.81;;;25.31
62932;BMP280;49037;41.898;25.004;2023-09-30T09:36:41;96789.59;;;25.55
62932;BMP280;49037;41.898;25.004;2023-09-30T09:39:10;96779.34;;;25.56
62932;BMP280;49037;41.898;25.004;2023-09-30T09:41:57;96777.25;;;25.54
62932;BMP280;49037;41.898;25.004;2023-09-30T09:44:24;96776.84;;;25.62
62932;BMP280;49037;41.898;25.004;2023-09-30T09:46:52;96794.75;;;25.47
62932;BMP280;49037;41.898;25.004;2023-09-30T09:49:18;96790.75;;;25.50
62932;BMP280;49037;41.898;25.004;2023-09-30T09:51:48;96782.66;;;25.71
62932;BMP280;49037;41.898;25.004;2023-09-30T09:54:15;96783.59;;;25.78
62932;BMP280;49037;41.898;25.004;2023-09-30T09:56:42;96772.22;;;25.66
62932;BMP280;49037;41.898;25.004;2023-09-30T09:59:09;96774.00;;;25.40
62932;BMP280;49037;41.898;25.004;2023-09-30T10:01:36;96779.44;;;25.58
62932;BMP280;49037;41.898;25.004;2023-09-30T10:04:05;96771.09;;;25.73
62932;BMP280;49037;41.898;25.004;2023-09-30T10:06:31;96770.81;;;25.84
62932;BMP280;49037;41.898;25.004;2023-09-30T10:09:05;96756.72;;;25.92
62932;BMP280;49037;41.898;25.004;2023-09-30T10:11:32;96765.88;;;25.98
62932;BMP280;49037;41.898;25.004;2023-09-30T10:13:58;96767.34;;;26.01
62932;BMP280;49037;41.898;25.004;2023-09-30T10:19:10;96750.53;;;26.08
62932;BMP280;49037;41.898;25.004;2023-09-30T10:21:36;96761.16;;;26.01
62932;BMP280;49037;41.898;25.004;2023-09-30T10:35:20;96742.72;;;26.01
62932;BMP280;49037;41.898;25.004;2023-09-30T10:37:46;96738.88;;;25.91
62932;BMP280;49037;41.898;25.004;2023-09-30T10:40:29;96726.25;;;25.63
62932;BMP280;49037;41.898;25.004;2023-09-30T10:42:55;96744.03;;;26.00
62932;BMP280;49037;41.898;25.004;2023-09-30T10:51:12;96736.31;;;25.95
62932;BMP280;49037;41.898;25.004;2023-09-30T10:53:54;96731.34;;;26.08
62932;BMP280;49037;41.898;25.004;2023-09-30T10:56:32;96709.84;;;26.20
62932;BMP280;49037;41.898;25.004;2023-09-30T10:58:58;96713.38;;;26.44
62932;BMP280;49037;41.898;25.004;2023-09-30T11:01:24;96716.19;;;26.46
62932;BMP280;49037;41.898;25.004;2023-09-30T11:03:57;96725.63;;;26.22
62932;BMP280;49037;41.898;25.004;2023-09-30T11:06:23;96712.94;;;25.92
62932;BMP280;49037;41.898;25.004;2023-09-30T11:09:00;96714.53;;;25.60
62932;BMP280;49037;41.898;25.004;2023-09-30T11:11:35;96724.00;;;25.57
62932;BMP280;49037;41.898;25.004;2023-09-30T11:15:16;96713.03;;;25.74
62932;BMP280;49037;41.898;25.004;2023-09-30T11:17:42;96691.81;;;25.75
62932;BMP280;49037;41.898;25.004;2023-09-30T11:20:08;96707.78;;;26.21
62932;BMP280;49037;41.898;25.004;2023-09-30T11:22:37;96706.22;;;26.16
62932;BMP280;49037;41.898;25.004;2023-09-30T11:25:22;96699.09;;;26.26
62932;BMP280;49037;41.898;25.004;2023-09-30T11:27:49;96695.41;;;26.39
62932;BMP280;49037;41.898;25.004;2023-09-30T11:30:15;96690.56;;;26.37
62932;BMP280;49037;41.898;25.004;2023-09-30T11:32:43;96695.25;;;26.14
62932;BMP280;49037;41.898;25.004;2023-09-30T11:35:10;96691.22;;;26.36
62932;BMP280;49037;41.898;25.004;2023-09-30T11:40:13;96678.00;;;26.31
62932;BMP280;49037;41.898;25.004;2023-09-30T11:42:39;96687.06;;;26.56
62932;BMP280;49037;41.898;25.004;2023-09-30T11:45:19;96682.41;;;26.39
62932;BMP280;49037;41.898;25.004;2023-09-30T11:47:48;96675.22;;;26.09
62932;BMP280;49037;41.898;25.004;2023-09-30T11:50:14;96682.47;;;26.01
62932;BMP280;49037;41.898;25.004;2023-09-30T11:52:44;96674.91;;;26.00
62932;BMP280;49037;41.898;25.004;2023-09-30T11:55:11;96671.56;;;26.03
62932;BMP280;49037;41.898;25.004;2023-09-30T11:57:38;96673.34;;;26.35
62932;BMP280;49037;41.898;25.004;2023-09-30T12:00:04;96668.78;;;26.41
62932;BMP280;49037;41.898;25.004;2023-09-30T12:02:38;96668.06;;;26.01
62932;BMP280;49037;41.898;25.004;2023-09-30T12:05:06;96667.03;;;25.90
62932;BMP280;49037;41.898;25.004;2023-09-30T12:07:37;96671.50;;;25.82
62932;BMP280;49037;41.898;25.004;2023-09-30T12:10:05;96680.63;;;25.69
62932;BMP280;49037;41.898;25.004;2023-09-30T12:12:33;96659.28;;;25.46
62932;BMP280;49037;41.898;25.004;2023-09-30T12:14:59;96668.63;;;25.59
62932;BMP280;49037;41.898;25.004;2023-09-30T12:17:24;96671.72;;;25.68
62932;BMP280;49037;41.898;25.004;2023-09-30T12:19:50;96664.88;;;25.67
62932;BMP280;49037;41.898;25.004;2023-09-30T12:22:16;96646.69;;;25.76
62932;BMP280;49037;41.898;25.004;2023-09-30T12:24:42;96659.47;;;25.89
62932;BMP280;49037;41.898;25.004;2023-09-30T12:27:08;96667.50;;;26.04
62932;BMP280;49037;41.898;25.004;2023-09-30T12:29:34;96656.59;;;25.66
62932;BMP280;49037;41.898;25.004;2023-09-30T12:33:57;96652.44;;;25.84
62932;BMP280;49037;41.898;25.004;2023-09-30T12:36:56;96663.88;;;25.98
62932;BMP280;49037;41.898;25.004;2023-09-30T12:43:06;96636.41;;;25.74
62932;BMP280;49037;41.898;25.004;2023-09-30T12:45:32;96651.41;;;25.73
62932;BMP280;49037;41.898;25.004;2023-09-30T12:47:59;96636.50;;;25.78
62932;BMP280;49037;41.898;25.004;2023-09-30T12:50:25;96632.50;;;25.81
62932;BMP280;49037;41.898;25.004;2023-09-30T12:52:53;96640.16;;;25.85
62932;BMP280;49037;41.898;25.004;2023-09-30T12:55:21;96637.34;;;25.83
62932;BMP280;49037;41.898;25.004;2023-09-30T12:58:16;96632.59;;;25.83
62932;BMP280;49037;41.898;25.004;2023-09-30T13:01:01;96641.41;;;25.82
62932;BMP280;49037;41.898;25.004;2023-09-30T13:03:31;96632.94;;;25.74
62932;BMP280;49037;41.898;25.004;2023-09-30T13:07:27;96629.66;;;25.77
62932;BMP280;49037;41.898;25.004;2023-09-30T13:18:13;96618.34;;;25.67
62932;BMP280;49037;41.898;25.004;2023-09-30T13:20:41;96615.75;;;25.52
62932;BMP280;49037;41.898;25.004;2023-09-30T13:23:15;96605.84;;;25.43
62932;BMP280;49037;41.898;25.004;2023-09-30T13:25:41;96624.84;;;25.39
62932;BMP280;49037;41.898;25.004;2023-09-30T13:28:35;96619.97;;;25.55
62932;BMP280;49037;41.898;25.004;2023-09-30T13:31:04;96618.63;;;25.37
62932;BMP280;49037;41.898;25.004;2023-09-30T13:33:29;96615.97;;;25.39
62932;BMP280;49037;41.898;25.004;2023-09-30T13:51:50;96598.63;;;25.71
62932;BMP280;49037;41.898;25.004;2023-09-30T13:54:15;96592.81;;;25.61
62932;BMP280;49037;41.898;25.004;2023-09-30T13:56:53;96593.63;;;25.46
62932;BMP280;49037;41.898;25.004;2023-09-30T14:03:25;96585.03;;;25.34
62932;BMP280;49037;41.898;25.004;2023-09-30T14:06:14;96589.94;;;25.38
62932;BMP280;49037;41.898;25.004;2023-09-30T14:08:55;96591.78;;;25.32
62932;BMP280;49037;41.898;25.004;2023-09-30T14:11:32;96571.50;;;25.19
62932;BMP280;49037;41.898;25.004;2023-09-30T14:13:58;96588.94;;;25.30
62932;BMP280;49037;41.898;25.004;2023-09-30T14:16:32;96583.22;;;25.22
62932;BMP280;49037;41.898;25.004;2023-09-30T14:19:10;96594.19;;;25.24
62932;BMP280;49037;41.898;25.004;2023-09-30T14:21:45;96594.16;;;25.22
62932;BMP280;49037;41.898;25.004;2023-09-30T14:24:29;96590.75;;;25.04
62932;BMP280;49037;41.898;25.004;2023-09-30T14:26:57;96590.06;;;25.03
62932;BMP280;49037;41.898;25.004;2023-09-30T14:29:32;96577.13;;;24.87
62932;BMP280;49037;41.898;25.004;2023-09-30T14:35:45;96587.19;;;24.82
62932;BMP280;49037;41.898;25.004;2023-09-30T14:38:29;96599.22;;;24.93
62932;BMP280;49037;41.898;25.004;2023-09-30T14:41:00;96583.13;;;24.83
62932;BMP280;49037;41.898;25.004;2023-09-30T14:43:53;96589.44;;;24.88
62932;BMP280;49037;41.898;25.004;2023-09-30T14:46:42;96590.47;;;24.79
62932;BMP280;49037;41.898;25.004;2023-09-30T14:49:13;96587.75;;;24.79
62932;BMP280;49037;41.898;25.004;2023-09-30T14:51:41;96579.72;;;24.65
62932;BMP280;49037;41.898;25.004;2023-09-30T14:54:10;96586.75;;;24.70
62932;BMP280;49037;41.898;25.004;2023-09-30T14:57:01;96588.56;;;24.64
62932;BMP280;49037;41.898;25.004;2023-09-30T14:59:36;96584.63;;;24.52
62932;BMP280;49037;41.898;25.004;2023-09-30T15:02:05;96579.28;;;24.54
62932;BMP280;49037;41.898;25.004;2023-09-30T15:04:37;96587.19;;;24.48
62932;BMP280;49037;41.898;25.004;2023-09-30T15:07:28;96591.28;;;24.47
62932;BMP280;49037;41.898;25.004;2023-09-30T15:09:53;96575.50;;;24.28
62932;BMP280;49037;41.898;25.004;2023-09-30T15:12:19;96591.00;;;24.41
62932;BMP280;49037;41.898;25.004;2023-09-30T15:15:08;96589.78;;;24.27
62932;BMP280;49037;41.898;25.004;2023-09-30T15:17:34;96570.19;;;24.15